sensor_id;sensor_type;location;lat;lon;timestamp;P1;durP1;ratioP1;P2;durP2;ratioP2
46897;SDS011;32646;50.958;6.258;2023-02-13T00:00:12;25.35;;;11.52;;
46897;SDS011;32646;50.958;6.258;2023-02-13T00:02:41;29.88;;;9.68;;
46897;SDS011;32646;50.958;6.258;2023-02-13T00:05:08;23.90;;;10.05;;
46897;SDS011;32646;50.958;6.258;2023-02-13T00:07:34;26.25;;;8.98;;
46897;SDS011;32646;50.958;6.258;2023-02-13T00:10:01;25.20;;;9.90;;
46897;SDS011;32646;50.958;6.258;2023-02-13T00:12:28;21.73;;;10.23;;
46897;SDS011;32646;50.958;6.258;2023-02-13T00:14:54;22.55;;;9.40;;
46897;SDS011;32646;50.958;6.258;2023-02-13T00:17:21;24.52;;;9.95;;
46897;SDS011;32646;50.958;6.258;2023-02-13T00:19:47;26.80;;;8.82;;
46897;SDS011;32646;50.958;6.258;2023-02-13T00:22:14;25.73;;;10.10;;
46897;SDS011;32646;50.958;6.258;2023-02-13T00:24:40;24.92;;;9.23;;
46897;SDS011;32646;50.958;6.258;2023-02-13T00:27:07;22.50;;;9.27;;
46897;SDS011;32646;50.958;6.258;2023-02-13T00:29:34;23.35;;;8.95;;
46897;SDS011;32646;50.958;6.258;2023-02-13T00:32:00;25.42;;;10.35;;
46897;SDS011;32646;50.958;6.258;2023-02-13T00:34:27;26.52;;;9.93;;
46897;SDS011;32646;50.958;6.258;2023-02-13T00:36:54;22.27;;;8.77;;
46897;SDS011;32646;50.958;6.258;2023-02-13T00:39:20;29.55;;;9.07;;
46897;SDS011;32646;50.958;6.258;2023-02-13T00:41:47;23.30;;;9.23;;
46897;SDS011;32646;50.958;6.258;2023-02-13T00:44:13;24.77;;;9.93;;
46897;SDS011;32646;50.958;6.258;2023-02-13T00:46:40;23.58;;;8.65;;
46897;SDS011;32646;50.958;6.258;2023-02-13T00:49:06;21.27;;;8.95;;
46897;SDS011;32646;50.958;6.258;2023-02-13T00:51:33;23.77;;;8.73;;
46897;SDS011;32646;50.958;6.258;2023-02-13T00:54:00;24.08;;;9.32;;
46897;SDS011;32646;50.958;6.258;2023-02-13T00:56:26;25.30;;;7.82;;
46897;SDS011;32646;50.958;6.258;2023-02-13T00:58:53;22.52;;;8.73;;
46897;SDS011;32646;50.958;6.258;2023-02-13T01:01:20;20.80;;;9.27;;
46897;SDS011;32646;50.958;6.258;2023-02-13T01:03:46;22.52;;;8.35;;
46897;SDS011;32646;50.958;6.258;2023-02-13T01:06:13;21.42;;;8.98;;
46897;SDS011;32646;50.958;6.258;2023-02-13T01:08:40;22.50;;;8.60;;
46897;SDS011;32646;50.958;6.258;2023-02-13T01:11:07;23.98;;;7.88;;
46897;SDS011;32646;50.958;6.258;2023-02-13T01:13:34;22.48;;;8.05;;
46897;SDS011;32646;50.958;6.258;2023-02-13T01:16:00;17.92;;;7.82;;
46897;SDS011;32646;50.958;6.258;2023-02-13T01:18:27;18.67;;;7.90;;
46897;SDS011;32646;50.958;6.258;2023-02-13T01:20:56;21.17;;;8.60;;
46897;SDS011;32646;50.958;6.258;2023-02-13T01:23:31;23.40;;;8.82;;
46897;SDS011;32646;50.958;6.258;2023-02-13T01:26:03;20.05;;;9.05;;
46897;SDS011;32646;50.958;6.258;2023-02-13T01:28:31;24.08;;;9.60;;
46897;SDS011;32646;50.958;6.258;2023-02-13T01:30:58;25.65;;;9.15;;
46897;SDS011;32646;50.958;6.258;2023-02-13T01:33:26;29.63;;;9.55;;
46897;SDS011;32646;50.958;6.258;2023-02-13T01:35:54;31.23;;;10.05;;
46897;SDS011;32646;50.958;6.258;2023-02-13T01:38:20;31.20;;;10.02;;
46897;SDS011;32646;50.958;6.258;2023-02-13T01:40:48;27.02;;;9.10;;
46897;SDS011;32646;50.958;6.258;2023-02-13T01:43:18;27.27;;;9.30;;
46897;SDS011;32646;50.958;6.258;2023-02-13T01:45:46;32.75;;;10.98;;
46897;SDS011;32646;50.958;6.258;2023-02-13T01:50:46;25.20;;;8.82;;
46897;SDS011;32646;50.958;6.258;2023-02-13T01:55:49;32.80;;;10.48;;
46897;SDS011;32646;50.958;6.258;2023-02-13T01:58:23;32.42;;;9.65;;
46897;SDS011;32646;50.958;6.258;2023-02-13T02:00:52;31.45;;;10.57;;
46897;SDS011;32646;50.958;6.258;2023-02-13T02:03:37;32.50;;;9.82;;
46897;SDS011;32646;50.958;6.258;2023-02-13T02:06:10;40.22;;;10.60;;
46897;SDS011;32646;50.958;6.258;2023-02-13T02:08:39;39.53;;;11.35;;
46897;SDS011;32646;50.958;6.258;2023-02-13T02:11:08;38.33;;;11.23;;
46897;SDS011;32646;50.958;6.258;2023-02-13T02:13:41;34.53;;;11.50;;
46897;SDS011;32646;50.958;6.258;2023-02-13T02:16:09;39.08;;;10.77;;
46897;SDS011;32646;50.958;6.258;2023-02-13T02:18:36;39.58;;;10.65;;
46897;SDS011;32646;50.958;6.258;2023-02-13T02:38:14;37.17;;;10.45;;
46897;SDS011;32646;50.958;6.258;2023-02-13T02:43:27;34.78;;;10.43;;
46897;SDS011;32646;50.958;6.258;2023-02-13T02:46:36;29.20;;;9.70;;
46897;SDS011;32646;50.958;6.258;2023-02-13T02:49:12;30.60;;;10.90;;
46897;SDS011;32646;50.958;6.258;2023-02-13T02:54:36;29.52;;;9.60;;
46897;SDS011;32646;50.958;6.258;2023-02-13T02:57:13;37.78;;;10.38;;
46897;SDS011;32646;50.958;6.258;2023-02-13T02:59:43;37.90;;;12.00;;
46897;SDS011;32646;50.958;6.258;2023-02-13T03:02:13;35.47;;;11.52;;
46897;SDS011;32646;50.958;6.258;2023-02-13T03:04:43;38.35;;;12.27;;
46897;SDS011;32646;50.958;6.258;2023-02-13T03:07:14;41.08;;;12.60;;
46897;SDS011;32646;50.958;6.258;2023-02-13T03:09:44;45.08;;;13.10;;
46897;SDS011;32646;50.958;6.258;2023-02-13T03:12:16;43.58;;;12.10;;
46897;SDS011;32646;50.958;6.258;2023-02-13T03:14:47;47.95;;;13.07;;
46897;SDS011;32646;50.958;6.258;2023-02-13T03:17:14;43.20;;;12.60;;
46897;SDS011;32646;50.958;6.258;2023-02-13T03:22:44;44.88;;;14.30;;
46897;SDS011;32646;50.958;6.258;2023-02-13T03:28:08;48.65;;;14.10;;
46897;SDS011;32646;50.958;6.258;2023-02-13T03:36:26;45.50;;;13.32;;
46897;SDS011;32646;50.958;6.258;2023-02-13T03:42:07;44.75;;;12.05;;
46897;SDS011;32646;50.958;6.258;2023-02-13T03:44:35;42.65;;;12.77;;
46897;SDS011;32646;50.958;6.258;2023-02-13T03:47:11;45.10;;;13.63;;
46897;SDS011;32646;50.958;6.258;2023-02-13T03:49:41;43.05;;;13.07;;
46897;SDS011;32646;50.958;6.258;2023-02-13T03:52:16;44.58;;;13.00;;
46897;SDS011;32646;50.958;6.258;2023-02-13T03:54:51;45.00;;;13.60;;
46897;SDS011;32646;50.958;6.258;2023-02-13T03:57:22;40.65;;;12.32;;
46897;SDS011;32646;50.958;6.258;2023-02-13T03:59:50;49.75;;;13.50;;
46897;SDS011;32646;50.958;6.258;2023-02-13T04:02:18;45.25;;;13.45;;
46897;SDS011;32646;50.958;6.258;2023-02-13T04:04:49;38.30;;;12.73;;
46897;SDS011;32646;50.958;6.258;2023-02-13T04:07:23;37.65;;;13.02;;
46897;SDS011;32646;50.958;6.258;2023-02-13T04:09:50;40.35;;;13.32;;
46897;SDS011;32646;50.958;6.258;2023-02-13T04:14:50;42.55;;;13.13;;
46897;SDS011;32646;50.958;6.258;2023-02-13T04:17:29;39.45;;;12.73;;
46897;SDS011;32646;50.958;6.258;2023-02-13T04:19:58;37.97;;;12.38;;
46897;SDS011;32646;50.958;6.258;2023-02-13T04:22:25;46.40;;;12.98;;
46897;SDS011;32646;50.958;6.258;2023-02-13T04:24:51;43.35;;;13.13;;
46897;SDS011;32646;50.958;6.258;2023-02-13T04:27:18;40.05;;;12.90;;
46897;SDS011;32646;50.958;6.258;2023-02-13T04:29:45;37.45;;;12.55;;
46897;SDS011;32646;50.958;6.258;2023-02-13T04:32:11;40.58;;;13.55;;
46897;SDS011;32646;50.958;6.258;2023-02-13T04:34:38;43.53;;;13.80;;
46897;SDS011;32646;50.958;6.258;2023-02-13T04:37:04;33.55;;;11.68;;
46897;SDS011;32646;50.958;6.258;2023-02-13T04:39:31;38.47;;;12.02;;
46897;SDS011;32646;50.958;6.258;2023-02-13T04:41:58;31.23;;;12.02;;
46897;SDS011;32646;50.958;6.258;2023-02-13T04:44:24;40.95;;;13.63;;
46897;SDS011;32646;50.958;6.258;2023-02-13T04:46:51;44.83;;;12.30;;
46897;SDS011;32646;50.958;6.258;2023-02-13T04:49:17;44.88;;;12.98;;
46897;SDS011;32646;50.958;6.258;2023-02-13T04:51:44;40.25;;;13.70;;
46897;SDS011;32646;50.958;6.258;2023-02-13T04:54:10;41.88;;;12.68;;
46897;SDS011;32646;50.958;6.258;2023-02-13T04:56:37;45.70;;;13.70;;
46897;SDS011;32646;50.958;6.258;2023-02-13T04:59:03;41.92;;;12.88;;
46897;SDS011;32646;50.958;6.258;2023-02-13T05:01:30;48.85;;;12.88;;
46897;SDS011;32646;50.958;6.258;2023-02-13T05:03:56;44.83;;;13.35;;
46897;SDS011;32646;50.958;6.258;2023-02-13T05:06:23;50.22;;;13.93;;
46897;SDS011;32646;50.958;6.258;2023-02-13T05:08:49;34.45;;;11.00;;
46897;SDS011;32646;50.958;6.258;2023-02-13T05:11:16;40.38;;;13.95;;
46897;SDS011;32646;50.958;6.258;2023-02-13T05:13:42;44.15;;;13.13;;
46897;SDS011;32646;50.958;6.258;2023-02-13T05:16:09;48.92;;;13.98;;
46897;SDS011;32646;50.958;6.258;2023-02-13T05:18:35;43.40;;;12.13;;
46897;SDS011;32646;50.958;6.258;2023-02-13T05:21:02;40.53;;;12.77;;
46897;SDS011;32646;50.958;6.258;2023-02-13T05:23:29;39.88;;;12.40;;
46897;SDS011;32646;50.958;6.258;2023-02-13T05:25:55;42.17;;;14.63;;
46897;SDS011;32646;50.958;6.258;2023-02-13T05:28:21;32.58;;;12.05;;
46897;SDS011;32646;50.958;6.258;2023-02-13T05:30:48;37.75;;;12.52;;
46897;SDS011;32646;50.958;6.258;2023-02-13T05:33:15;32.75;;;12.10;;
46897;SDS011;32646;50.958;6.258;2023-02-13T05:35:41;32.55;;;11.10;;
46897;SDS011;32646;50.958;6.258;2023-02-13T05:38:08;28.77;;;11.38;;
46897;SDS011;32646;50.958;6.258;2023-02-13T05:40:34;30.50;;;10.48;;
46897;SDS011;32646;50.958;6.258;2023-02-13T05:43:01;36.85;;;11.60;;
46897;SDS011;32646;50.958;6.258;2023-02-13T05:45:27;30.83;;;11.15;;
46897;SDS011;32646;50.958;6.258;2023-02-13T05:47:54;27.50;;;10.68;;
46897;SDS011;32646;50.958;6.258;2023-02-13T05:50:20;27.65;;;9.75;;
46897;SDS011;32646;50.958;6.258;2023-02-13T05:52:47;31.52;;;10.52;;
46897;SDS011;32646;50.958;6.258;2023-02-13T05:55:14;31.88;;;10.80;;
46897;SDS011;32646;50.958;6.258;2023-02-13T05:57:40;29.48;;;9.50;;
46897;SDS011;32646;50.958;6.258;2023-02-13T06:00:07;31.92;;;11.60;;
46897;SDS011;32646;50.958;6.258;2023-02-13T06:02:34;35.08;;;12.43;;
46897;SDS011;32646;50.958;6.258;2023-02-13T06:05:00;39.47;;;13.02;;
46897;SDS011;32646;50.958;6.258;2023-02-13T06:07:27;34.80;;;13.57;;
46897;SDS011;32646;50.958;6.258;2023-02-13T06:09:53;34.42;;;11.23;;
46897;SDS011;32646;50.958;6.258;2023-02-13T06:12:20;44.78;;;14.43;;
46897;SDS011;32646;50.958;6.258;2023-02-13T06:14:46;39.95;;;12.80;;
46897;SDS011;32646;50.958;6.258;2023-02-13T06:17:13;40.92;;;12.43;;
46897;SDS011;32646;50.958;6.258;2023-02-13T06:19:39;41.47;;;13.20;;
46897;SDS011;32646;50.958;6.258;2023-02-13T06:22:06;35.28;;;12.85;;
46897;SDS011;32646;50.958;6.258;2023-02-13T06:24:32;46.15;;;13.50;;
46897;SDS011;32646;50.958;6.258;2023-02-13T06:26:59;39.53;;;13.38;;
46897;SDS011;32646;50.958;6.258;2023-02-13T06:29:25;39.80;;;13.02;;
46897;SDS011;32646;50.958;6.258;2023-02-13T06:31:52;44.47;;;11.93;;
46897;SDS011;32646;50.958;6.258;2023-02-13T06:34:18;35.45;;;11.38;;
46897;SDS011;32646;50.958;6.258;2023-02-13T06:36:45;29.15;;;11.48;;
46897;SDS011;32646;50.958;6.258;2023-02-13T06:39:11;32.55;;;12.18;;
46897;SDS011;32646;50.958;6.258;2023-02-13T06:41:38;34.20;;;11.95;;
46897;SDS011;32646;50.958;6.258;2023-02-13T06:44:04;31.45;;;10.82;;
46897;SDS011;32646;50.958;6.258;2023-02-13T06:46:31;36.50;;;11.32;;
46897;SDS011;32646;50.958;6.258;2023-02-13T06:48:58;35.08;;;11.25;;
46897;SDS011;32646;50.958;6.258;2023-02-13T06:51:24;42.95;;;14.98;;
46897;SDS011;32646;50.958;6.258;2023-02-13T06:53:51;37.65;;;12.65;;
46897;SDS011;32646;50.958;6.258;2023-02-13T06:56:17;42.05;;;13.20;;
46897;SDS011;32646;50.958;6.258;2023-02-13T06:58:44;36.90;;;12.75;;
46897;SDS011;32646;50.958;6.258;2023-02-13T07:01:10;44.15;;;13.35;;
46897;SDS011;32646;50.958;6.258;2023-02-13T07:03:37;45.92;;;14.75;;
46897;SDS011;32646;50.958;6.258;2023-02-13T07:06:03;45.92;;;14.57;;
46897;SDS011;32646;50.958;6.258;2023-02-13T07:08:30;47.83;;;15.07;;
46897;SDS011;32646;50.958;6.258;2023-02-13T07:10:56;44.17;;;13.52;;
46897;SDS011;32646;50.958;6.258;2023-02-13T07:13:23;45.70;;;15.02;;
46897;SDS011;32646;50.958;6.258;2023-02-13T07:15:50;42.38;;;13.45;;
46897;SDS011;32646;50.958;6.258;2023-02-13T07:18:16;35.00;;;11.57;;
46897;SDS011;32646;50.958;6.258;2023-02-13T07:20:43;46.17;;;13.35;;
46897;SDS011;32646;50.958;6.258;2023-02-13T07:23:09;41.33;;;13.45;;
46897;SDS011;32646;50.958;6.258;2023-02-13T07:25:36;47.78;;;14.27;;
46897;SDS011;32646;50.958;6.258;2023-02-13T07:28:03;55.00;;;15.35;;
46897;SDS011;32646;50.958;6.258;2023-02-13T07:30:31;48.40;;;13.43;;
46897;SDS011;32646;50.958;6.258;2023-02-13T07:32:59;54.13;;;13.30;;
46897;SDS011;32646;50.958;6.258;2023-02-13T07:35:27;55.40;;;15.93;;
46897;SDS011;32646;50.958;6.258;2023-02-13T07:37:54;50.80;;;15.23;;
46897;SDS011;32646;50.958;6.258;2023-02-13T07:40:21;44.75;;;15.25;;
46897;SDS011;32646;50.958;6.258;2023-02-13T07:42:47;28.83;;;12.05;;
46897;SDS011;32646;50.958;6.258;2023-02-13T07:45:14;26.08;;;11.32;;
46897;SDS011;32646;50.958;6.258;2023-02-13T07:47:41;20.73;;;8.10;;
46897;SDS011;32646;50.958;6.258;2023-02-13T07:50:08;17.38;;;7.85;;
46897;SDS011;32646;50.958;6.258;2023-02-13T07:52:35;16.80;;;8.38;;
46897;SDS011;32646;50.958;6.258;2023-02-13T07:55:02;18.50;;;9.02;;
46897;SDS011;32646;50.958;6.258;2023-02-13T07:57:29;17.50;;;8.30;;
46897;SDS011;32646;50.958;6.258;2023-02-13T07:59:55;20.58;;;8.40;;
46897;SDS011;32646;50.958;6.258;2023-02-13T08:02:22;19.20;;;7.78;;
46897;SDS011;32646;50.958;6.258;2023-02-13T08:04:48;21.70;;;8.85;;
46897;SDS011;32646;50.958;6.258;2023-02-13T08:07:16;24.02;;;8.80;;
46897;SDS011;32646;50.958;6.258;2023-02-13T08:09:43;23.90;;;8.57;;
46897;SDS011;32646;50.958;6.258;2023-02-13T08:12:10;24.70;;;9.02;;
46897;SDS011;32646;50.958;6.258;2023-02-13T08:14:37;25.05;;;9.65;;
46897;SDS011;32646;50.958;6.258;2023-02-13T08:17:03;25.67;;;10.43;;
46897;SDS011;32646;50.958;6.258;2023-02-13T08:19:30;27.85;;;10.23;;
46897;SDS011;32646;50.958;6.258;2023-02-13T08:21:56;19.83;;;8.52;;
46897;SDS011;32646;50.958;6.258;2023-02-13T08:24:23;18.73;;;8.40;;
46897;SDS011;32646;50.958;6.258;2023-02-13T08:26:50;16.77;;;7.00;;
46897;SDS011;32646;50.958;6.258;2023-02-13T08:29:16;14.93;;;7.03;;
46897;SDS011;32646;50.958;6.258;2023-02-13T08:31:43;15.32;;;7.03;;
46897;SDS011;32646;50.958;6.258;2023-02-13T08:34:09;13.02;;;6.50;;
46897;SDS011;32646;50.958;6.258;2023-02-13T08:36:36;13.85;;;6.82;;
46897;SDS011;32646;50.958;6.258;2023-02-13T08:39:02;15.02;;;6.88;;
46897;SDS011;32646;50.958;6.258;2023-02-13T08:41:29;12.00;;;6.82;;
46897;SDS011;32646;50.958;6.258;2023-02-13T08:43:56;14.00;;;7.13;;
46897;SDS011;32646;50.958;6.258;2023-02-13T08:46:22;12.68;;;6.70;;
46897;SDS011;32646;50.958;6.258;2023-02-13T08:48:49;16.15;;;8.02;;
46897;SDS011;32646;50.958;6.258;2023-02-13T08:51:15;13.38;;;7.10;;
46897;SDS011;32646;50.958;6.258;2023-02-13T08:53:42;13.02;;;6.30;;
46897;SDS011;32646;50.958;6.258;2023-02-13T08:56:09;11.13;;;6.72;;
46897;SDS011;32646;50.958;6.258;2023-02-13T08:58:35;12.23;;;6.50;;
46897;SDS011;32646;50.958;6.258;2023-02-13T09:01:05;13.63;;;6.95;;
46897;SDS011;32646;50.958;6.258;2023-02-13T09:03:33;11.90;;;6.80;;
46897;SDS011;32646;50.958;6.258;2023-02-13T09:06:01;12.45;;;6.63;;
46897;SDS011;32646;50.958;6.258;2023-02-13T09:08:28;12.98;;;6.82;;
46897;SDS011;32646;50.958;6.258;2023-02-13T09:10:59;12.60;;;7.28;;
46897;SDS011;32646;50.958;6.258;2023-02-13T09:13:31;13.15;;;7.32;;
46897;SDS011;32646;50.958;6.258;2023-02-13T09:16:05;14.45;;;7.75;;
46897;SDS011;32646;50.958;6.258;2023-02-13T09:18:32;13.32;;;6.38;;
46897;SDS011;32646;50.958;6.258;2023-02-13T09:21:00;13.73;;;7.55;;
46897;SDS011;32646;50.958;6.258;2023-02-13T09:23:29;13.43;;;7.10;;
46897;SDS011;32646;50.958;6.258;2023-02-13T09:26:00;12.07;;;6.72;;
46897;SDS011;32646;50.958;6.258;2023-02-13T09:28:28;11.88;;;7.50;;
46897;SDS011;32646;50.958;6.258;2023-02-13T09:30:56;11.38;;;6.97;;
46897;SDS011;32646;50.958;6.258;2023-02-13T09:33:24;11.30;;;6.50;;
46897;SDS011;32646;50.958;6.258;2023-02-13T09:35:51;11.13;;;7.25;;
46897;SDS011;32646;50.958;6.258;2023-02-13T09:38:18;12.10;;;6.22;;
46897;SDS011;32646;50.958;6.258;2023-02-13T09:40:48;11.90;;;6.70;;
46897;SDS011;32646;50.958;6.258;2023-02-13T09:43:28;12.40;;;6.50;;
46897;SDS011;32646;50.958;6.258;2023-02-13T09:46:15;12.05;;;6.63;;
46897;SDS011;32646;50.958;6.258;2023-02-13T09:48:46;13.18;;;6.45;;
46897;SDS011;32646;50.958;6.258;2023-02-13T09:51:17;12.88;;;6.90;;
46897;SDS011;32646;50.958;6.258;2023-02-13T09:53:55;11.82;;;6.15;;
46897;SDS011;32646;50.958;6.258;2023-02-13T10:01:59;13.38;;;6.85;;
46897;SDS011;32646;50.958;6.258;2023-02-13T10:04:51;12.95;;;6.70;;
46897;SDS011;32646;50.958;6.258;2023-02-13T10:16:05;12.27;;;5.93;;
46897;SDS011;32646;50.958;6.258;2023-02-13T10:21:29;11.68;;;6.07;;
46897;SDS011;32646;50.958;6.258;2023-02-13T10:24:04;10.95;;;6.20;;
46897;SDS011;32646;50.958;6.258;2023-02-13T10:26:39;11.23;;;6.25;;
46897;SDS011;32646;50.958;6.258;2023-02-13T10:29:11;12.38;;;6.05;;
46897;SDS011;32646;50.958;6.258;2023-02-13T10:31:42;11.45;;;6.47;;
46897;SDS011;32646;50.958;6.258;2023-02-13T10:34:14;12.00;;;6.68;;
46897;SDS011;32646;50.958;6.258;2023-02-13T10:36:45;10.38;;;5.53;;
46897;SDS011;32646;50.958;6.258;2023-02-13T10:39:23;12.25;;;6.40;;
46897;SDS011;32646;50.958;6.258;2023-02-13T10:47:17;12.05;;;6.63;;
46897;SDS011;32646;50.958;6.258;2023-02-13T11:03:38;9.18;;;5.30;;
46897;SDS011;32646;50.958;6.258;2023-02-13T11:06:05;11.60;;;6.30;;
46897;SDS011;32646;50.958;6.258;2023-02-13T11:08:44;12.90;;;6.68;;
46897;SDS011;32646;50.958;6.258;2023-02-13T11:11:28;13.52;;;6.50;;
46897;SDS011;32646;50.958;6.258;2023-02-13T11:14:09;12.55;;;6.88;;
46897;SDS011;32646;50.958;6.258;2023-02-13T11:16:43;10.68;;;5.90;;
46897;SDS011;32646;50.958;6.258;2023-02-13T11:19:16;12.38;;;5.93;;
46897;SDS011;32646;50.958;6.258;2023-02-13T11:21:45;12.45;;;6.88;;
46897;SDS011;32646;50.958;6.258;2023-02-13T11:24:17;11.70;;;6.28;;
46897;SDS011;32646;50.958;6.258;2023-02-13T11:26:49;10.48;;;6.40;;
46897;SDS011;32646;50.958;6.258;2023-02-13T11:29:20;10.52;;;6.45;;
46897;SDS011;32646;50.958;6.258;2023-02-13T11:34:32;11.27;;;6.15;;
46897;SDS011;32646;50.958;6.258;2023-02-13T11:39:38;11.63;;;6.38;;
46897;SDS011;32646;50.958;6.258;2023-02-13T11:42:14;11.43;;;5.90;;
46897;SDS011;32646;50.958;6.258;2023-02-13T11:47:39;11.93;;;5.80;;
46897;SDS011;32646;50.958;6.258;2023-02-13T11:50:20;11.30;;;5.65;;
46897;SDS011;32646;50.958;6.258;2023-02-13T11:55:32;10.27;;;5.60;;
46897;SDS011;32646;50.958;6.258;2023-02-13T11:58:01;11.13;;;5.40;;
46897;SDS011;32646;50.958;6.258;2023-02-13T12:00:38;12.85;;;5.65;;
46897;SDS011;32646;50.958;6.258;2023-02-13T12:03:29;10.05;;;5.38;;
46897;SDS011;32646;50.958;6.258;2023-02-13T12:08:41;11.43;;;5.18;;
46897;SDS011;32646;50.958;6.258;2023-02-13T12:13:58;10.00;;;4.57;;
46897;SDS011;32646;50.958;6.258;2023-02-13T12:16:39;10.05;;;4.72;;
46897;SDS011;32646;50.958;6.258;2023-02-13T12:19:10;9.93;;;5.85;;
46897;SDS011;32646;50.958;6.258;2023-02-13T12:24:47;8.98;;;4.57;;
46897;SDS011;32646;50.958;6.258;2023-02-13T12:30:08;9.48;;;4.63;;
46897;SDS011;32646;50.958;6.258;2023-02-13T12:52:09;9.38;;;4.93;;
46897;SDS011;32646;50.958;6.258;2023-02-13T12:57:47;9.00;;;4.53;;
46897;SDS011;32646;50.958;6.258;2023-02-13T13:00:37;9.85;;;5.50;;
46897;SDS011;32646;50.958;6.258;2023-02-13T13:06:44;10.75;;;5.22;;
46897;SDS011;32646;50.958;6.258;2023-02-13T13:22:41;11.02;;;5.93;;
46897;SDS011;32646;50.958;6.258;2023-02-13T13:28:02;11.23;;;5.90;;
46897;SDS011;32646;50.958;6.258;2023-02-13T13:30:36;10.98;;;5.45;;
46897;SDS011;32646;50.958;6.258;2023-02-13T13:35:41;10.60;;;5.03;;
46897;SDS011;32646;50.958;6.258;2023-02-13T13:41:29;10.77;;;4.93;;
46897;SDS011;32646;50.958;6.258;2023-02-13T13:49:43;9.60;;;4.82;;
46897;SDS011;32646;50.958;6.258;2023-02-13T13:54:47;11.98;;;4.90;;
46897;SDS011;32646;50.958;6.258;2023-02-13T13:57:15;8.80;;;4.32;;
46897;SDS011;32646;50.958;6.258;2023-02-13T14:07:33;9.82;;;5.32;;
46897;SDS011;32646;50.958;6.258;2023-02-13T14:10:01;9.25;;;5.35;;
46897;SDS011;32646;50.958;6.258;2023-02-13T14:14:57;9.55;;;5.10;;
46897;SDS011;32646;50.958;6.258;2023-02-13T14:21:11;11.95;;;5.88;;
46897;SDS011;32646;50.958;6.258;2023-02-13T14:26:12;8.77;;;4.70;;
46897;SDS011;32646;50.958;6.258;2023-02-13T14:31:28;9.15;;;4.57;;
46897;SDS011;32646;50.958;6.258;2023-02-13T14:33:58;8.90;;;4.63;;
46897;SDS011;32646;50.958;6.258;2023-02-13T14:36:31;11.30;;;5.72;;
46897;SDS011;32646;50.958;6.258;2023-02-13T14:39:03;10.30;;;5.32;;
46897;SDS011;32646;50.958;6.258;2023-02-13T14:41:39;11.48;;;6.35;;
46897;SDS011;32646;50.958;6.258;2023-02-13T14:44:13;10.38;;;5.68;;
46897;SDS011;32646;50.958;6.258;2023-02-13T14:46:43;12.80;;;6.03;;
46897;SDS011;32646;50.958;6.258;2023-02-13T14:49:29;11.65;;;6.18;;
46897;SDS011;32646;50.958;6.258;2023-02-13T14:52:21;10.32;;;5.50;;
46897;SDS011;32646;50.958;6.258;2023-02-13T14:54:48;9.13;;;5.28;;
46897;SDS011;32646;50.958;6.258;2023-02-13T14:57:20;8.05;;;4.72;;
46897;SDS011;32646;50.958;6.258;2023-02-13T14:59:52;9.65;;;4.97;;
46897;SDS011;32646;50.958;6.258;2023-02-13T15:04:55;10.93;;;6.05;;
46897;SDS011;32646;50.958;6.258;2023-02-13T15:07:28;12.15;;;6.18;;
46897;SDS011;32646;50.958;6.258;2023-02-13T15:10:06;9.80;;;5.65;;
46897;SDS011;32646;50.958;6.258;2023-02-13T15:13:00;9.23;;;5.05;;
46897;SDS011;32646;50.958;6.258;2023-02-13T15:15:29;9.77;;;5.30;;
46897;SDS011;32646;50.958;6.258;2023-02-13T15:17:59;10.02;;;4.90;;
46897;SDS011;32646;50.958;6.258;2023-02-13T15:20:36;9.85;;;5.78;;
46897;SDS011;32646;50.958;6.258;2023-02-13T15:23:06;11.25;;;5.20;;
46897;SDS011;32646;50.958;6.258;2023-02-13T15:25:40;10.52;;;5.10;;
46897;SDS011;32646;50.958;6.258;2023-02-13T15:28:07;10.07;;;5.38;;
46897;SDS011;32646;50.958;6.258;2023-02-13T15:31:00;11.05;;;5.53;;
46897;SDS011;32646;50.958;6.258;2023-02-13T15:33:32;11.05;;;5.22;;
46897;SDS011;32646;50.958;6.258;2023-02-13T15:36:12;11.10;;;5.65;;
46897;SDS011;32646;50.958;6.258;2023-02-13T15:38:45;12.70;;;6.05;;
46897;SDS011;32646;50.958;6.258;2023-02-13T15:41:19;10.98;;;5.55;;
46897;SDS011;32646;50.958;6.258;2023-02-13T15:43:49;11.65;;;6.22;;
46897;SDS011;32646;50.958;6.258;2023-02-13T15:46:28;11.55;;;5.72;;
46897;SDS011;32646;50.958;6.258;2023-02-13T15:48:57;14.65;;;6.15;;
46897;SDS011;32646;50.958;6.258;2023-02-13T15:51:28;11.93;;;5.97;;
46897;SDS011;32646;50.958;6.258;2023-02-13T15:56:27;14.98;;;6.85;;
46897;SDS011;32646;50.958;6.258;2023-02-13T15:58:54;12.10;;;6.60;;
46897;SDS011;32646;50.958;6.258;2023-02-13T16:01:22;13.02;;;6.90;;
46897;SDS011;32646;50.958;6.258;2023-02-13T16:03:49;13.30;;;7.68;;
46897;SDS011;32646;50.958;6.258;2023-02-13T16:06:24;14.07;;;6.78;;
46897;SDS011;32646;50.958;6.258;2023-02-13T16:08:52;13.68;;;7.30;;
46897;SDS011;32646;50.958;6.258;2023-02-13T16:11:33;15.00;;;7.22;;
46897;SDS011;32646;50.958;6.258;2023-02-13T16:14:05;12.40;;;6.70;;
46897;SDS011;32646;50.958;6.258;2023-02-13T16:16:51;13.73;;;6.28;;
46897;SDS011;32646;50.958;6.258;2023-02-13T16:25:06;19.27;;;8.05;;
46897;SDS011;32646;50.958;6.258;2023-02-13T16:27:35;18.10;;;8.60;;
46897;SDS011;32646;50.958;6.258;2023-02-13T16:30:03;21.83;;;8.48;;
46897;SDS011;32646;50.958;6.258;2023-02-13T16:32:33;20.52;;;9.82;;
46897;SDS011;32646;50.958;6.258;2023-02-13T16:37:57;30.88;;;13.20;;
46897;SDS011;32646;50.958;6.258;2023-02-13T16:40:35;37.83;;;15.80;;
46897;SDS011;32646;50.958;6.258;2023-02-13T16:48:41;24.67;;;10.63;;
46897;SDS011;32646;50.958;6.258;2023-02-13T16:51:09;24.58;;;11.15;;
46897;SDS011;32646;50.958;6.258;2023-02-13T16:53:36;19.05;;;9.07;;
46897;SDS011;32646;50.958;6.258;2023-02-13T16:56:05;17.85;;;8.43;;
46897;SDS011;32646;50.958;6.258;2023-02-13T16:58:33;21.45;;;8.90;;
46897;SDS011;32646;50.958;6.258;2023-02-13T17:01:01;17.92;;;7.22;;
46897;SDS011;32646;50.958;6.258;2023-02-13T17:03:32;17.10;;;7.43;;
46897;SDS011;32646;50.958;6.258;2023-02-13T17:06:00;18.30;;;7.78;;
46897;SDS011;32646;50.958;6.258;2023-02-13T17:08:28;15.52;;;7.43;;
46897;SDS011;32646;50.958;6.258;2023-02-13T17:13:30;14.10;;;6.75;;
46897;SDS011;32646;50.958;6.258;2023-02-13T17:15:58;15.45;;;6.82;;
46897;SDS011;32646;50.958;6.258;2023-02-13T17:18:25;14.30;;;6.90;;
46897;SDS011;32646;50.958;6.258;2023-02-13T17:20:52;14.18;;;7.25;;
46897;SDS011;32646;50.958;6.258;2023-02-13T17:23:20;14.50;;;6.55;;
46897;SDS011;32646;50.958;6.258;2023-02-13T17:25:51;15.05;;;6.95;;
46897;SDS011;32646;50.958;6.258;2023-02-13T17:28:22;14.70;;;6.03;;
46897;SDS011;32646;50.958;6.258;2023-02-13T17:30:51;14.45;;;6.60;;
46897;SDS011;32646;50.958;6.258;2023-02-13T17:33:21;16.35;;;7.40;;
46897;SDS011;32646;50.958;6.258;2023-02-13T17:35:52;14.23;;;6.53;;
46897;SDS011;32646;50.958;6.258;2023-02-13T17:38:19;15.68;;;7.18;;
46897;SDS011;32646;50.958;6.258;2023-02-13T17:40:46;17.83;;;7.00;;
46897;SDS011;32646;50.958;6.258;2023-02-13T17:43:14;16.63;;;6.75;;
46897;SDS011;32646;50.958;6.258;2023-02-13T17:45:42;15.68;;;6.93;;
46897;SDS011;32646;50.958;6.258;2023-02-13T17:48:09;16.58;;;7.30;;
46897;SDS011;32646;50.958;6.258;2023-02-13T17:50:35;17.92;;;7.93;;
46897;SDS011;32646;50.958;6.258;2023-02-13T17:53:03;17.92;;;7.10;;
46897;SDS011;32646;50.958;6.258;2023-02-13T17:55:32;15.05;;;6.72;;
46897;SDS011;32646;50.958;6.258;2023-02-13T17:58:00;17.95;;;7.75;;
46897;SDS011;32646;50.958;6.258;2023-02-13T18:00:28;16.48;;;6.18;;
46897;SDS011;32646;50.958;6.258;2023-02-13T18:02:56;16.23;;;6.47;;
46897;SDS011;32646;50.958;6.258;2023-02-13T18:05:24;15.48;;;6.25;;